Time;durP1;ratioP1;P1;durP2;ratioP2;P2;SDS_P1;SDS_P2;PMS_P1;PMS_P2;Temp;Humidity;BMP_temperature;BMP_pressure;BME280_temperature;BME280_humidity;BME280_pressure;Samples;Min_cycle;Max_cycle;Signal;HPM_P1;HPM_P2
2022/03/22 00:00:41;;;;;;;15.80;8.73;;;;;;;8.54;57.23;102636.88;4991114;28;102025;-50
2022/03/22 00:03:07;;;;;;;14.32;8.60;;;;;;;8.54;57.36;102627.91;4992889;28;104069;-50
2022/03/22 00:05:40;;;;;;;17.05;9.82;;;;;;;8.53;57.36;102627.09;4973826;28;101950;-50
2022/03/22 00:08:07;;;;;;;15.02;8.82;;;;;;;8.54;56.79;102631.47;4993171;28;102512;-50
2022/03/22 00:10:34;;;;;;;16.38;9.10;;;;;;;8.53;56.73;102629.78;4974440;28;102745;-50
2022/03/22 00:13:03;;;;;;;15.32;8.77;;;;;;;8.53;57.51;102623.53;4973080;28;104077;-50
2022/03/22 00:15:30;;;;;;;15.02;8.35;;;;;;;8.53;57.43;102618.09;4973368;28;102303;-49
2022/03/22 00:17:59;;;;;;;15.32;9.27;;;;;;;8.54;57.07;102627.91;4990829;28;102066;-50
2022/03/22 00:20:25;;;;;;;12.77;8.23;;;;;;;8.54;57.32;102625.19;4994323;28;102151;-50
2022/03/22 00:22:52;;;;;;;16.48;8.68;;;;;;;8.53;56.84;102624.38;4992205;28;103844;-50
2022/03/22 00:25:19;;;;;;;14.98;8.10;;;;;;;8.54;57.41;102625.19;4994103;28;102469;-49
2022/03/22 00:27:56;;;;;;;13.88;8.35;;;;;;;8.53;56.90;102621.66;4991394;28;102282;-50
2022/03/22 00:30:24;;;;;;;16.67;8.48;;;;;;;8.53;56.97;102618.09;4995117;28;102062;-50
2022/03/22 00:32:53;;;;;;;14.77;8.02;;;;;;;8.53;56.95;102616.22;4992613;28;103708;-50
2022/03/22 00:35:23;;;;;;;13.65;7.95;;;;;;;8.53;56.84;102612.69;4993938;28;101922;-49
2022/03/22 00:37:52;;;;;;;15.48;8.30;;;;;;;8.53;57.25;102607.25;4991358;28;103592;-49
2022/03/22 00:40:19;;;;;;;13.77;8.40;;;;;;;8.54;57.60;102608.91;4994153;28;102102;-51
2022/03/22 00:42:48;;;;;;;10.67;7.17;;;;;;;8.54;57.00;102611.63;4993117;28;104114;-50
2022/03/22 00:45:16;;;;;;;13.48;7.57;;;;;;;8.53;56.94;102602.66;4988044;28;103372;-50
2022/03/22 00:47:43;;;;;;;16.20;7.75;;;;;;;8.53;57.30;102599.94;4989613;28;102581;-50
2022/03/22 00:50:10;;;;;;;14.18;8.27;;;;;;;8.53;57.24;102599.13;4989537;28;102231;-49
2022/03/22 00:52:38;;;;;;;11.15;7.50;;;;;;;8.54;57.13;102598.06;4982850;28;103863;-50
2022/03/22 00:55:07;;;;;;;13.13;8.55;;;;;;;8.53;57.88;102599.94;4985203;28;102007;-50
2022/03/22 00:57:34;;;;;;;12.35;7.75;;;;;;;8.52;57.37;102594.75;4989091;28;102438;-50
2022/03/22 01:00:05;;;;;;;12.57;7.63;;;;;;;8.53;57.00;102590.97;4984716;28;104300;-50
2022/03/22 01:02:36;;;;;;;11.23;7.43;;;;;;;8.53;56.78;102596.41;4987752;28;103967;-50
2022/03/22 01:05:05;;;;;;;13.20;7.43;;;;;;;8.53;57.11;102590.97;4987090;28;102297;-50
2022/03/22 01:07:33;;;;;;;10.97;7.33;;;;;;;8.53;57.12;102596.41;4986920;28;102172;-49
2022/03/22 01:10:05;;;;;;;13.13;7.82;;;;;;;8.53;56.98;102596.41;4975461;28;102474;-50
2022/03/22 01:12:34;;;;;;;13.55;7.82;;;;;;;8.53;57.34;102604.53;4988509;28;104051;-50
2022/03/22 01:15:02;;;;;;;14.25;7.88;;;;;;;8.52;56.97;102594.75;4985126;28;102448;-49
2022/03/22 01:17:31;;;;;;;12.20;7.75;;;;;;;8.50;57.17;102597.66;4987928;28;102355;-49
2022/03/22 01:19:58;;;;;;;15.40;8.60;;;;;;;8.52;57.33;102601.00;4989435;28;102329;-50
2022/03/22 01:22:25;;;;;;;14.35;8.10;;;;;;;8.53;57.55;102596.41;4987094;28;103862;-49
2022/03/22 01:24:53;;;;;;;14.13;8.55;;;;;;;8.51;57.37;102593.91;4987821;28;102397;-49
2022/03/22 01:27:22;;;;;;;15.90;8.70;;;;;;;8.53;57.53;102585.53;4991930;28;102326;-50
2022/03/22 01:29:48;;;;;;;15.20;9.05;;;;;;;8.51;57.16;102584.91;4986847;28;102703;-50
2022/03/22 01:32:15;;;;;;;14.13;8.52;;;;;;;8.52;56.95;102590.16;4983288;28;103792;-49
2022/03/22 01:34:46;;;;;;;15.65;8.43;;;;;;;8.52;57.18;102590.16;4992258;28;101887;-52
2022/03/22 01:37:13;;;;;;;14.60;9.00;;;;;;;8.53;57.97;102585.53;4990785;28;102465;-50
2022/03/22 01:39:40;;;;;;;16.00;8.60;;;;;;;8.52;57.69;102590.16;4991871;28;102774;-50
2022/03/22 01:42:07;;;;;;;16.65;8.85;;;;;;;8.51;57.37;102583.06;4990210;28;104113;-50
2022/03/22 01:44:35;;;;;;;14.02;8.65;;;;;;;8.53;57.28;102585.53;4991678;28;103248;-50
2022/03/22 01:47:03;;;;;;;16.15;8.55;;;;;;;8.53;57.49;102590.97;4987895;28;102512;-50
2022/03/22 01:49:31;;;;;;;16.27;9.63;;;;;;;8.52;57.33;102589.31;4983591;28;102626;-50
2022/03/22 01:51:57;;;;;;;15.75;8.63;;;;;;;8.54;57.60;102592.63;4991157;28;103945;-50
2022/03/22 01:54:24;;;;;;;14.55;8.18;;;;;;;8.52;56.99;102595.56;4989646;28;102406;-50
2022/03/22 01:56:51;;;;;;;13.85;8.70;;;;;;;8.53;57.44;102591.81;4977961;28;101968;-50
2022/03/22 01:59:18;;;;;;;14.18;8.25;;;;;;;8.51;57.58;102587.63;4984963;28;102241;-50
2022/03/22 02:07:21;;;;;;;13.27;8.05;;;;;;;8.52;57.94;102583.88;4988232;28;101947;-50
2022/03/22 02:09:47;;;;;;;13.30;8.23;;;;;;;8.52;57.06;102583.88;4981947;28;102558;-50
2022/03/22 02:12:14;;;;;;;14.15;7.88;;;;;;;8.51;57.25;102588.47;4971354;28;103467;-50
2022/03/22 02:14:40;;;;;;;13.32;7.88;;;;;;;8.52;57.13;102578.47;4971928;28;101912;-50
2022/03/22 02:17:09;;;;;;;12.82;7.75;;;;;;;8.51;57.73;102580.34;4978428;28;102290;-50
2022/03/22 02:19:38;;;;;;;14.82;8.10;;;;;;;8.51;58.17;102582.19;4992376;28;102449;-50
2022/03/22 02:22:08;;;;;;;14.35;8.52;;;;;;;8.51;57.69;102593.06;4991124;28;103927;-50
2022/03/22 02:24:36;;;;;;;12.98;7.57;;;;;;;8.51;57.91;102596.63;4979696;28;102484;-59
2022/03/22 02:27:05;;;;;;;13.35;7.38;;;;;;;8.52;57.47;102594.75;4977111;28;102463;-50
2022/03/22 02:29:32;;;;;;;13.52;7.18;;;;;;;8.52;58.08;102594.75;4992122;28;102304;-50
2022/03/22 02:31:58;;;;;;;13.48;7.72;;;;;;;8.53;57.21;102596.41;4989894;28;103830;-50
2022/03/22 02:34:25;;;;;;;12.80;7.45;;;;;;;8.52;57.41;102598.28;4990915;28;102197;-50
2022/03/22 02:36:51;;;;;;;14.23;7.55;;;;;;;8.51;57.44;102583.06;4989695;28;103022;-50
2022/03/22 02:39:18;;;;;;;13.40;7.57;;;;;;;8.51;57.19;102596.63;4988080;28;102344;-50
2022/03/22 02:41:51;;;;;;;16.15;7.88;;;;;;;8.51;58.11;102595.75;4990427;28;103887;-51
2022/03/22 02:44:17;;;;;;;12.45;7.30;;;;;;;8.51;57.71;102593.91;4985763;28;102533;-50
2022/03/22 02:46:44;;;;;;;13.95;7.82;;;;;;;8.53;58.02;102596.41;4982040;28;101963;-50
2022/03/22 02:49:12;;;;;;;11.80;7.50;;;;;;;8.51;57.77;102590.34;4991618;28;102131;-50
2022/03/22 02:51:39;;;;;;;14.48;7.20;;;;;;;8.52;57.76;102592.03;4986840;28;104029;-50
2022/03/22 02:54:06;;;;;;;14.20;8.05;;;;;;;8.53;57.65;102596.41;4988316;28;102187;-50
2022/03/22 02:56:33;;;;;;;13.30;8.25;;;;;;;8.51;57.90;102593.06;4979243;28;101983;-50
2022/03/22 02:59:01;;;;;;;14.02;7.45;;;;;;;8.52;57.60;102589.31;4971955;28;102132;-50
2022/03/22 03:01:28;;;;;;;13.70;7.50;;;;;;;8.52;58.27;102590.16;4986591;28;104188;-50
2022/03/22 03:03:55;;;;;;;12.70;7.30;;;;;;;8.51;57.63;102588.47;4982063;28;102452;-51
2022/03/22 03:06:22;;;;;;;12.27;7.63;;;;;;;8.52;58.20;102590.16;4984855;28;102446;-50
2022/03/22 03:09:06;;;;;;;15.73;7.32;;;;;;;8.53;57.46;102585.53;4982245;28;102293;-49
2022/03/22 03:11:32;;;;;;;12.85;7.72;;;;;;;8.52;57.33;102590.16;4986379;28;104373;-50
2022/03/22 03:16:45;;;;;;;11.80;6.82;;;;;;;8.52;58.20;102601.00;4972306;28;102634;-50
2022/03/22 03:19:11;;;;;;;13.07;7.90;;;;;;;8.51;57.68;102598.47;4991341;28;102157;-49
2022/03/22 03:21:38;;;;;;;12.93;7.35;;;;;;;8.52;58.13;102594.75;4980826;28;104057;-50
2022/03/22 03:24:06;;;;;;;13.75;7.15;;;;;;;8.53;58.25;102593.69;4991994;28;102015;-50
2022/03/22 03:26:34;;;;;;;12.32;6.75;;;;;;;8.53;57.28;102590.97;4991504;28;102624;-50
2022/03/22 03:29:01;;;;;;;12.63;6.90;;;;;;;8.52;57.65;102592.84;4979371;28;102528;-50
2022/03/22 03:31:28;;;;;;;12.10;6.97;;;;;;;8.53;57.31;102596.41;4985278;28;103924;-50
2022/03/22 03:33:56;;;;;;;10.98;6.90;;;;;;;8.52;57.46;102598.28;4991905;28;102614;-50
2022/03/22 03:36:23;;;;;;;13.02;7.13;;;;;;;8.53;57.52;102590.97;4990903;28;102605;-50
2022/03/22 03:38:49;;;;;;;9.88;6.57;;;;;;;8.53;57.93;102596.41;4992353;28;102076;-50
2022/03/22 03:47:03;;;;;;;9.13;6.25;;;;;;;8.52;57.71;102595.56;4974451;28;101925;-50
2022/03/22 03:47:09;;;;;;;10.43;6.45;;;;;;;8.53;57.51;102601.81;4974020;28;102395;-50
2022/03/22 03:49:38;;;;;;;13.35;6.53;;;;;;;8.52;57.84;102594.75;4975358;28;101975;-50
2022/03/22 03:52:06;;;;;;;12.02;7.03;;;;;;;8.53;58.43;102607.25;4989556;28;103829;-50
2022/03/22 03:54:34;;;;;;;11.38;6.90;;;;;;;8.51;57.96;102603.91;4994296;28;102423;-50
2022/03/22 03:57:01;;;;;;;13.13;7.47;;;;;;;8.52;57.56;102606.44;4985026;28;102077;-50
2022/03/22 03:59:29;;;;;;;10.40;6.35;;;;;;;8.52;57.95;102605.59;4975010;28;102078;-50
2022/03/22 04:01:55;;;;;;;12.43;6.45;;;;;;;8.51;57.67;102603.91;4974770;28;103880;-50
2022/03/22 04:04:22;;;;;;;10.27;6.32;;;;;;;8.51;58.11;102607.47;4991600;28;103849;-50
2022/03/22 04:06:50;;;;;;;10.90;6.38;;;;;;;8.51;57.71;102603.91;4992487;28;102312;-50
2022/03/22 04:09:17;;;;;;;11.50;6.47;;;;;;;8.52;57.96;102603.72;4994834;28;102241;-49
2022/03/22 04:11:45;;;;;;;11.93;6.22;;;;;;;8.52;57.69;102609.13;4991801;28;104079;-50
2022/03/22 04:14:32;;;;;;;9.50;5.97;;;;;;;8.51;58.06;102604.75;4993655;28;102382;-50
2022/03/22 04:16:58;;;;;;;10.23;6.40;;;;;;;8.52;58.00;102605.59;4993487;28;102307;-50
2022/03/22 04:19:28;;;;;;;11.10;6.28;;;;;;;8.51;57.92;102609.34;4984259;28;102531;-50
2022/03/22 04:21:57;;;;;;;11.20;6.72;;;;;;;8.52;58.06;102617.28;4986042;28;104419;-50
2022/03/22 04:24:23;;;;;;;11.48;6.43;;;;;;;8.51;57.73;102617.47;4993484;28;102366;-50
2022/03/22 04:26:50;;;;;;;11.45;6.80;;;;;;;8.51;57.55;102618.34;4993053;28;101901;-50
2022/03/22 04:34:51;;;;;;;13.15;7.20;;;;;;;8.52;57.57;102622.72;4992634;28;102029;-50
2022/03/22 04:37:19;;;;;;;12.05;7.03;;;;;;;8.51;57.57;102614.75;4983413;28;102513;-50
2022/03/22 04:39:46;;;;;;;9.90;6.15;;;;;;;8.52;57.97;102627.31;4975192;28;102446;-50
2022/03/22 04:42:16;;;;;;;11.57;6.38;;;;;;;8.52;57.48;102622.72;4973875;28;103881;-50
2022/03/22 04:44:47;;;;;;;9.95;6.13;;;;;;;8.52;58.23;102619.16;4979325;28;101771;-50
2022/03/22 04:47:13;;;;;;;9.73;5.88;;;;;;;8.52;58.39;102613.75;4979655;28;102449;-49
2022/03/22 04:49:40;;;;;;;12.25;6.55;;;;;;;8.53;58.20;102623.53;4975705;28;102457;-50
2022/03/22 04:57:38;;;;;;;11.43;5.88;;;;;;;8.54;57.63;102614.34;4985331;28;103617;-49
2022/03/22 05:00:06;;;;;;;10.93;5.90;;;;;;;8.54;58.42;102614.34;4988648;28;104161;-50
2022/03/22 05:02:34;;;;;;;9.48;6.10;;;;;;;8.55;57.41;102605.19;4992015;28;104073;-50
2022/03/22 05:05:00;;;;;;;9.32;5.25;;;;;;;8.56;58.55;102628.53;4983335;28;102558;-50
2022/03/22 05:07:27;;;;;;;10.60;5.70;;;;;;;8.55;58.19;102629.59;4985729;28;102520;-50
2022/03/22 05:09:56;;;;;;;8.90;5.38;;;;;;;8.56;57.58;102636.69;4986183;28;102095;-50
2022/03/22 05:12:22;;;;;;;9.20;5.38;;;;;;;8.56;58.36;102634.81;4978646;28;103868;-50
2022/03/22 05:14:50;;;;;;;9.68;6.05;;;;;;;8.56;57.68;102631.25;4984372;28;102139;-50
2022/03/22 05:17:21;;;;;;;8.80;5.68;;;;;;;8.56;57.75;102631.25;4979978;28;102028;-50
2022/03/22 05:19:49;;;;;;;12.10;6.10;;;;;;;8.57;57.99;102643.78;4973748;28;102546;-50
2022/03/22 05:22:21;;;;;;;9.60;5.75;;;;;;;8.57;57.32;102646.50;4988887;28;103904;-50
2022/03/22 05:24:47;;;;;;;8.23;5.47;;;;;;;8.56;58.28;102655.69;4992361;28;101891;-50
2022/03/22 05:27:15;;;;;;;8.98;5.28;;;;;;;8.56;57.29;102645.66;4990426;28;102315;-49
2022/03/22 05:29:42;;;;;;;9.18;5.45;;;;;;;8.57;57.43;102641.06;4993335;28;102054;-50
2022/03/22 05:32:09;;;;;;;11.05;5.30;;;;;;;8.57;57.27;102660.06;4990441;28;103995;-50
2022/03/22 05:34:36;;;;;;;9.85;5.90;;;;;;;8.57;57.22;102662.78;4992295;28;101943;-50
2022/03/22 05:37:04;;;;;;;10.20;5.55;;;;;;;8.58;57.33;102653.56;4987713;28;102127;-50
2022/03/22 05:39:30;;;;;;;10.82;5.53;;;;;;;8.57;57.18;102649.19;4991747;28;102540;-50
2022/03/22 05:41:58;;;;;;;10.05;5.78;;;;;;;8.56;57.48;102656.50;4991516;28;104174;-50
2022/03/22 05:44:26;;;;;;;10.38;4.97;;;;;;;8.56;57.26;102655.69;4991936;28;101932;-50
2022/03/22 05:46:56;;;;;;;8.77;5.43;;;;;;;8.57;57.60;102662.78;4992263;28;102054;-50
2022/03/22 05:49:22;;;;;;;;;;;;;;;8.57;57.68;102662.78;4992606;28;102429;-50
2022/03/22 05:51:49;;;;;;;9.00;5.07;;;;;;;8.58;57.43;102675.28;4989211;28;103986;-50
2022/03/22 05:54:20;;;;;;;9.48;5.63;;;;;;;8.56;56.93;102667.38;5004330;28;102176;-50
2022/03/22 05:56:46;;;;;;;9.98;4.95;;;;;;;8.57;57.06;102662.78;4991213;28;102558;-50
2022/03/22 05:59:15;;;;;;;8.07;4.57;;;;;;;8.57;57.60;102666.31;4972798;28;102498;-50
2022/03/22 06:01:44;;;;;;;10.52;5.32;;;;;;;8.56;57.34;102661.94;4971755;28;103869;-50
2022/03/22 06:04:11;;;;;;;4.20;2.88;;;;;;;8.57;57.87;102666.31;4991950;28;102057;-50
2022/03/22 06:06:43;;;;;;;10.65;4.97;;;;;;;8.57;57.82;102671.75;4991139;28;102284;-51
2022/03/22 06:09:11;;;;;;;10.88;5.05;;;;;;;8.58;57.41;102680.72;4993108;28;102172;-50
2022/03/22 06:11:37;;;;;;;8.43;5.30;;;;;;;8.56;57.79;102670.09;4975803;28;104209;-50
2022/03/22 06:14:05;;;;;;;9.50;4.90;;;;;;;8.56;57.54;102671.97;4990581;28;102304;-50
2022/03/22 06:16:32;;;;;;;12.80;5.05;;;;;;;8.58;57.34;102691.56;4990509;28;102426;-50
2022/03/22 06:19:01;;;;;;;10.00;5.30;;;;;;;8.57;57.76;102679.06;4991840;28;102235;-50
2022/03/22 06:21:28;;;;;;;11.83;5.37;;;;;;;8.57;57.43;102685.31;4989268;28;103844;-50
2022/03/22 06:23:55;;;;;;;10.15;4.75;;;;;;;8.57;57.10;102687.19;4982028;28;102048;-50
2022/03/22 06:26:21;;;;;;;14.07;5.20;;;;;;;8.57;57.24;102687.19;4978760;28;101881;-50
2022/03/22 06:28:49;;;;;;;9.18;5.13;;;;;;;8.57;56.95;102698.88;4992319;28;102197;-50
2022/03/22 06:31:15;;;;;;;10.88;5.00;;;;;;;8.57;57.84;102690.75;4991026;28;103937;-49
2022/03/22 06:33:42;;;;;;;11.65;5.32;;;;;;;8.57;57.08;102689.91;4987901;28;102267;-50
2022/03/22 06:36:11;;;;;;;12.80;5.05;;;;;;;8.56;57.56;102690.97;4971195;28;101854;-50
2022/03/22 06:38:39;;;;;;;10.18;4.43;;;;;;;8.57;57.48;102695.34;4972533;28;102491;-50
2022/03/22 06:41:05;;;;;;;13.32;5.25;;;;;;;8.57;57.07;102693.47;4980123;28;104419;-49
2022/03/22 06:43:33;;;;;;;12.90;5.32;;;;;;;8.58;57.14;102691.56;4987728;28;102056;-50
2022/03/22 06:46:00;;;;;;;9.77;4.70;;;;;;;8.58;56.89;102697.00;4977893;28;101954;-50
2022/03/22 06:48:27;;;;;;;12.98;5.30;;;;;;;8.58;56.91;102703.28;4986292;28;102214;-50
2022/03/22 06:50:53;;;;;;;8.15;4.57;;;;;;;8.58;56.73;102697.00;4982692;28;103943;-50
2022/03/22 06:53:21;;;;;;;10.88;4.90;;;;;;;8.57;57.89;102700.78;4973866;28;102231;-49
2022/03/22 06:55:50;;;;;;;9.33;4.67;;;;;;;8.58;57.03;102724.13;4990236;28;102332;-50
2022/03/22 06:58:21;;;;;;;11.60;5.47;;;;;;;8.59;57.53;102725.84;4999222;28;102163;-50
2022/03/22 07:00:48;;;;;;;9.98;4.53;;;;;;;8.58;56.93;102724.13;4988881;28;103869;-50
2022/03/22 07:03:15;;;;;;;9.18;4.82;;;;;;;8.59;58.00;102725.84;4978731;28;101990;-50
2022/03/22 07:05:45;;;;;;;12.40;4.90;;;;;;;8.59;58.02;102737.53;4976440;28;102221;-50
2022/03/22 07:08:13;;;;;;;7.95;4.22;;;;;;;8.60;57.59;102732.91;4982697;28;102483;-50
2022/03/22 07:10:41;;;;;;;9.98;5.45;;;;;;;8.61;57.28;102729.16;4984131;28;103857;-50
2022/03/22 07:13:11;;;;;;;10.15;5.00;;;;;;;8.61;57.76;102734.59;4990745;28;102472;-50
2022/03/22 07:15:38;;;;;;;;;;;;;;;8.62;56.81;102742.53;4994375;28;102012;-50
2022/03/22 07:18:07;;;;;;;9.30;4.97;;;;;;;8.62;57.17;102734.41;4992603;28;102687;-50
2022/03/22 07:20:36;;;;;;;9.23;4.47;;;;;;;8.65;57.59;102746.69;4974122;28;103984;-50
2022/03/22 07:23:04;;;;;;;9.60;4.25;;;;;;;8.65;56.75;102730.41;4977787;28;102375;-50
2022/03/22 07:25:33;;;;;;;11.25;4.30;;;;;;;8.65;56.74;102746.69;4991698;28;102432;-50
2022/03/22 07:28:01;;;;;;;9.38;4.63;;;;;;;8.65;56.74;102746.69;4987139;28;102479;-50
2022/03/22 07:30:29;;;;;;;10.10;4.60;;;;;;;8.65;57.72;102739.41;4988954;28;103897;-50
2022/03/22 07:32:56;;;;;;;12.13;4.50;;;;;;;8.68;57.41;102729.16;4993545;28;102378;-50
2022/03/22 07:35:23;;;;;;;13.10;4.85;;;;;;;8.68;57.45;102740.03;4988801;28;103122;-50
2022/03/22 07:37:52;;;;;;;9.55;4.38;;;;;;;8.69;56.71;102736.25;4990161;28;102352;-50
2022/03/22 07:40:19;;;;;;;11.75;4.60;;;;;;;8.70;56.73;102732.50;4993284;28;104165;-50
2022/03/22 07:42:49;;;;;;;10.30;4.40;;;;;;;8.71;57.01;102735.00;4992466;28;102133;-50
2022/03/22 07:45:19;;;;;;;12.75;4.07;;;;;;;8.73;56.75;102740.22;4993414;28;102348;-50
2022/03/22 07:47:46;;;;;;;10.27;4.40;;;;;;;8.72;57.18;102742.09;4991743;28;102293;-50
2022/03/22 07:53:05;;;;;;;13.95;4.10;;;;;;;8.74;56.89;102740.03;4991406;28;102018;-50
2022/03/22 07:55:35;;;;;;;12.52;4.60;;;;;;;8.75;56.25;102740.84;4985484;28;102393;-50
2022/03/22 07:58:05;;;;;;;13.30;5.22;;;;;;;8.76;56.62;102727.06;4976597;28;102214;-50
2022/03/22 08:00:37;;;;;;;9.27;4.05;;;;;;;8.76;56.93;102748.78;4989156;28;103974;-50
2022/03/22 08:03:08;;;;;;;8.27;4.00;;;;;;;8.76;56.98;102735.19;4991201;28;102239;-50
2022/03/22 08:05:35;;;;;;;10.50;3.80;;;;;;;8.77;56.09;102745.03;4993080;28;102436;-50
2022/03/22 08:08:04;;;;;;;14.37;4.20;;;;;;;8.79;57.04;102748.34;4994036;28;102134;-50
2022/03/22 08:10:32;;;;;;;9.57;4.32;;;;;;;8.80;56.00;102743.75;4991281;28;103989;-50
2022/03/22 08:12:59;;;;;;;9.75;3.80;;;;;;;8.83;56.04;102755.03;5005599;28;102106;-50
2022/03/22 08:15:26;;;;;;;10.68;4.45;;;;;;;8.85;56.11;102741.25;4992166;28;102436;-50
2022/03/22 08:17:54;;;;;;;10.90;4.00;;;;;;;8.87;56.84;102758.16;4992045;28;102355;-50
2022/03/22 08:20:24;;;;;;;11.40;3.88;;;;;;;8.88;56.35;102766.13;4989379;28;103919;-50
2022/03/22 08:22:53;;;;;;;13.93;3.65;;;;;;;8.88;56.68;102755.25;4972994;28;102377;-50
2022/03/22 08:25:24;;;;;;;10.40;4.20;;;;;;;8.89;56.12;102754.19;4971096;28;102238;-50
2022/03/22 08:27:51;;;;;;;12.48;3.80;;;;;;;8.90;56.32;102758.56;4986120;28;102164;-50
2022/03/22 08:30:21;;;;;;;10.02;3.78;;;;;;;8.91;56.60;102764.88;4972957;28;103907;-49
2022/03/22 08:32:49;;;;;;;10.98;4.07;;;;;;;8.93;56.54;102770.09;4973847;28;102394;-49
2022/03/22 08:35:18;;;;;;;9.40;4.20;;;;;;;8.93;56.53;102759.22;4989120;28;102304;-50
2022/03/22 08:37:45;;;;;;;10.00;4.13;;;;;;;8.94;56.67;102766.31;4994272;28;102232;-50
2022/03/22 08:40:14;;;;;;;12.57;3.75;;;;;;;8.95;56.43;102744.41;4982657;28;104495;-50
2022/03/22 08:42:43;;;;;;;10.82;4.10;;;;;;;8.97;55.79;102755.03;4979768;28;102396;-50
2022/03/22 08:45:11;;;;;;;9.48;3.20;;;;;;;8.97;56.06;102750.44;4976472;28;102573;-50
2022/03/22 08:47:40;;;;;;;11.40;4.18;;;;;;;8.97;56.27;102760.47;4979414;28;102495;-50
2022/03/22 08:50:09;;;;;;;12.13;4.25;;;;;;;8.99;55.74;102736.66;4984635;28;103099;-50
2022/03/22 08:52:39;;;;;;;9.52;3.83;;;;;;;8.99;56.37;102736.66;4975135;28;102308;-50
2022/03/22 08:55:08;;;;;;;10.57;3.75;;;;;;;9.00;56.40;102744.59;4977805;28;102392;-51
2022/03/22 08:57:35;;;;;;;9.00;3.67;;;;;;;9.02;56.01;102742.50;4974557;28;102444;-50
2022/03/22 09:00:08;;;;;;;9.52;3.20;;;;;;;9.02;55.57;102750.66;4978372;28;104128;-50
2022/03/22 09:02:38;;;;;;;8.85;3.15;;;;;;;9.05;55.10;102743.94;4988753;28;102341;-50
2022/03/22 09:07:53;;;;;;;9.45;3.10;;;;;;;9.04;55.27;102745.00;4983919;28;103039;-50
2022/03/22 09:10:21;;;;;;;13.40;3.58;;;;;;;9.05;55.66;102739.38;4991392;28;104150;-50
2022/03/22 09:12:49;;;;;;;11.98;3.05;;;;;;;9.05;55.15;102741.22;4981394;28;102031;-50
2022/03/22 09:15:15;;;;;;;8.07;3.28;;;;;;;9.05;55.53;102747.50;4976885;28;101957;-49
2022/03/22 09:17:46;;;;;;;9.15;2.97;;;;;;;9.06;55.11;102748.34;4979917;28;102316;-50
2022/03/22 09:20:13;;;;;;;8.90;2.85;;;;;;;9.07;55.84;102741.84;4991412;28;103986;-50
2022/03/22 09:22:44;;;;;;;8.82;2.83;;;;;;;9.09;55.09;102748.75;4991006;28;102309;-50
2022/03/22 09:25:13;;;;;;;8.63;2.80;;;;;;;9.10;55.70;102741.44;4988811;28;102059;-50
2022/03/22 09:27:43;;;;;;;;;;;;;;;9.09;55.85;102747.94;4992394;28;102268;-50
2022/03/22 09:30:11;;;;;;;10.60;2.72;;;;;;;9.11;55.71;102748.53;4991373;28;103819;-49
2022/03/22 09:32:42;;;;;;;;;;;;;;;9.11;55.30;102751.25;4977829;28;102087;-50
2022/03/22 09:35:11;;;;;;;6.00;2.92;;;;;;;9.12;54.82;102744.75;4984455;28;102421;-49
2022/03/22 09:37:41;;;;;;;6.65;2.55;;;;;;;9.12;55.44;102751.06;4993059;28;102206;-50
2022/03/22 09:40:09;;;;;;;8.95;2.85;;;;;;;9.14;54.70;102756.25;4989723;28;103943;-50
2022/03/22 09:42:45;;;;;;;9.90;2.50;;;;;;;9.15;54.97;102752.50;5005654;28;102018;-50
2022/03/22 09:45:14;;;;;;;6.60;2.65;;;;;;;9.15;55.13;102753.31;4992001;28;102106;-50
2022/03/22 09:47:45;;;;;;;10.48;2.58;;;;;;;9.15;54.51;102752.50;4993942;28;102363;-50
2022/03/22 09:50:13;;;;;;;8.13;2.47;;;;;;;9.14;54.34;102748.94;4986444;28;103900;-50
2022/03/22 09:52:41;;;;;;;9.27;2.60;;;;;;;9.16;54.66;102751.47;4993041;28;102387;-50
2022/03/22 09:55:11;;;;;;;8.82;2.70;;;;;;;9.15;54.34;102737.03;4990809;28;101970;-50
2022/03/22 09:57:40;;;;;;;6.13;2.20;;;;;;;9.16;54.82;102754.19;4988369;28;102273;-50
2022/03/22 10:00:09;;;;;;;8.33;2.20;;;;;;;9.15;54.64;102752.50;4991329;28;103441;-50
2022/03/22 10:02:36;;;;;;;9.07;2.58;;;;;;;9.18;54.52;102757.50;4991880;28;102607;-50
2022/03/22 10:05:04;;;;;;;11.52;2.53;;;;;;;9.18;54.70;102768.38;4989351;28;102300;-50
2022/03/22 10:07:31;;;;;;;13.48;2.28;;;;;;;9.18;53.81;102762.94;4990672;28;102091;-50
2022/03/22 10:10:09;;;;;;;9.88;2.70;;;;;;;9.18;54.08;102768.38;4990463;28;104037;-51
2022/03/22 10:12:38;;;;;;;10.85;2.58;;;;;;;9.18;53.61;102754.78;4981680;28;102502;-50
2022/03/22 10:15:09;;;;;;;19.73;2.53;;;;;;;9.17;54.28;102749.59;4991193;28;102256;-50
2022/03/22 10:17:40;;;;;;;8.60;2.50;;;;;;;9.17;54.24;102744.97;4992503;28;102116;-50
2022/03/22 10:20:08;;;;;;;8.88;2.55;;;;;;;9.18;53.81;102748.53;4991268;28;104039;-49
2022/03/22 10:22:36;;;;;;;8.52;2.53;;;;;;;9.16;54.59;102754.19;4991628;28;102735;-50
2022/03/22 10:25:04;;;;;;;9.00;3.17;;;;;;;9.18;53.68;102748.53;4991815;28;102324;-50
2022/03/22 10:27:33;;;;;;;8.25;2.17;;;;;;;9.17;53.73;102744.16;4992581;28;102227;-50
2022/03/22 10:30:04;;;;;;;8.10;2.67;;;;;;;9.16;54.51;102746.03;4991135;28;103859;-50
2022/03/22 10:32:33;;;;;;;8.57;2.40;;;;;;;9.17;53.51;102744.16;4991611;28;102104;-49
2022/03/22 10:35:11;;;;;;;6.43;2.30;;;;;;;9.18;53.66;102745.81;4990863;28;102487;-50
2022/03/22 10:37:41;;;;;;;8.00;2.50;;;;;;;9.17;53.79;102746.88;4992135;28;102259;-50
2022/03/22 10:40:23;;;;;;;9.30;2.28;;;;;;;9.15;53.52;102744.34;4990798;28;103900;-50
2022/03/22 10:42:54;;;;;;;5.65;2.08;;;;;;;9.15;53.46;102736.19;4991598;28;102253;-50
2022/03/22 10:45:23;;;;;;;12.13;2.63;;;;;;;9.17;53.37;102753.13;4991002;28;102472;-50
2022/03/22 10:47:50;;;;;;;9.13;2.67;;;;;;;9.16;53.29;102748.75;5006633;28;102719;-50
2022/03/22 10:50:18;;;;;;;10.90;2.35;;;;;;;9.17;53.98;102749.59;4990087;28;103762;-49
2022/03/22 10:52:50;;;;;;;6.40;1.73;;;;;;;9.16;54.02;102754.19;4991301;28;101985;-50
2022/03/22 10:55:19;;;;;;;10.25;2.30;;;;;;;9.15;54.08;102747.88;4986133;28;102200;-50
2022/03/22 10:57:48;;;;;;;6.53;1.80;;;;;;;9.14;53.03;102746.22;4991545;28;102444;-50
2022/03/22 11:00:17;;;;;;;4.25;1.88;;;;;;;9.14;53.16;102748.94;4988813;28;103941;-50
2022/03/22 11:02:48;;;;;;;9.07;2.30;;;;;;;9.14;53.34;102739.97;4974609;28;102479;-49
2022/03/22 11:05:19;;;;;;;10.18;2.05;;;;;;;9.15;53.22;102752.50;4970892;28;102388;-50
2022/03/22 11:07:48;;;;;;;5.80;2.15;;;;;;;9.13;53.02;102747.28;4973713;28;102262;-50
2022/03/22 11:10:19;;;;;;;5.85;2.00;;;;;;;9.13;53.61;102744.56;4982564;28;103826;-49
2022/03/22 11:12:46;;;;;;;9.60;2.67;;;;;;;9.14;53.72;102740.78;4972045;28;102471;-50
2022/03/22 11:15:14;;;;;;;3.03;1.60;;;;;;;9.14;53.36;102739.97;4987273;28;102206;-49
2022/03/22 11:17:42;;;;;;;7.38;2.10;;;;;;;9.14;53.12;102735.38;4989520;28;102715;-50
2022/03/22 11:20:13;;;;;;;8.32;1.85;;;;;;;9.14;53.34;102739.97;4978493;28;103969;-49
2022/03/22 11:22:49;;;;;;;9.00;2.25;;;;;;;9.14;53.30;102737.25;4982056;28;101966;-50
2022/03/22 11:25:18;;;;;;;5.57;1.98;;;;;;;9.13;52.72;102725.56;4990157;28;102274;-50
2022/03/22 11:27:57;;;;;;;5.35;1.90;;;;;;;9.13;53.58;102738.31;4991330;28;102301;-50
2022/03/22 11:30:26;;;;;;;5.33;1.87;;;;;;;9.13;53.33;102738.31;4989804;28;103839;-50
2022/03/22 11:35:52;;;;;;;5.55;1.65;;;;;;;9.12;52.84;102736.63;4988151;28;102090;-50
2022/03/22 11:38:45;;;;;;;6.07;1.80;;;;;;;9.13;53.17;102732.88;4989302;28;102278;-50
2022/03/22 11:44:15;;;;;;;7.25;2.15;;;;;;;9.12;53.00;102739.31;4983191;28;102744;-50
2022/03/22 11:46:43;;;;;;;8.20;2.17;;;;;;;9.10;52.45;102717.81;4989853;28;102450;-50
2022/03/22 11:49:18;;;;;;;5.97;2.10;;;;;;;9.11;52.92;102730.34;4987631;28;102284;-56
2022/03/22 11:51:55;;;;;;;9.90;2.65;;;;;;;9.10;53.04;102722.44;4987165;28;103865;-49
2022/03/22 11:54:23;;;;;;;4.93;2.08;;;;;;;9.10;52.12;102728.69;4989302;28;102293;-50
2022/03/22 11:56:52;;;;;;;5.70;1.83;;;;;;;9.10;51.86;102725.97;4990248;28;102103;-50
2022/03/22 11:59:20;;;;;;;10.60;2.03;;;;;;;9.10;52.47;102730.56;4982645;28;102114;-50
2022/03/22 12:01:59;;;;;;;8.05;2.35;;;;;;;9.09;52.27;102737.06;4991393;28;104142;-49